Time;durP1;ratioP1;P1;durP2;ratioP2;P2;SDS_P1;SDS_P2;PMS_P1;PMS_P2;Temp;Humidity;BMP_temperature;BMP_pressure;BME280_temperature;BME280_humidity;BME280_pressure;Samples;Min_cycle;Max_cycle;Signal;HPM_P1;HPM_P2
2021/07/12 00:00:32;;;;;;;5.63;5.10;;;22.10;1.00;;;;;;5076747;28;20458;-68
2021/07/12 00:03:03;;;;;;;5.40;4.97;;;22.10;1.00;;;;;;5076603;28;20469;-67
2021/07/12 00:05:31;;;;;;;5.00;4.60;;;22.00;1.00;;;;;;5076875;28;20450;-67
2021/07/12 00:07:58;;;;;;;5.30;4.90;;;22.00;1.00;;;;;;5076745;28;20458;-68
2021/07/12 00:10:27;;;;;;;6.00;5.60;;;22.00;1.00;;;;;;5077263;28;20960;-68
2021/07/12 00:12:54;;;;;;;5.90;5.50;;;22.00;1.00;;;;;;5077905;28;20458;-66
2021/07/12 00:15:23;;;;;;;5.40;5.00;;;21.90;1.00;;;;;;5076810;28;20482;-67
2021/07/12 00:17:51;;;;;;;5.93;5.30;;;21.90;1.00;;;;;;5077073;28;20480;-68
2021/07/12 00:20:19;;;;;;;5.60;5.20;;;21.90;1.00;;;;;;5076794;28;20500;-68
2021/07/12 00:22:47;;;;;;;5.90;5.23;;;21.90;1.00;;;;;;5076225;28;20934;-67
2021/07/12 00:25:15;;;;;;;5.30;4.90;;;21.80;1.00;;;;;;5076643;28;20735;-68
2021/07/12 00:27:43;;;;;;;5.60;4.77;;;21.80;1.00;;;;;;5076260;28;20966;-68
2021/07/12 00:30:12;;;;;;;5.40;4.90;;;21.80;1.00;;;;;;5076058;28;20538;-68
2021/07/12 00:32:40;;;;;;;5.40;5.00;;;21.80;1.00;;;;;;5078741;28;20454;-68
2021/07/12 00:35:10;;;;;;;5.60;5.20;;;21.80;1.00;;;;;;5080996;28;20454;-68
2021/07/12 00:37:38;;;;;;;5.80;5.40;;;21.80;1.00;;;;;;5080695;28;20458;-68
2021/07/12 00:40:07;;;;;;;5.43;5.00;;;21.80;1.00;;;;;;5079984;28;20523;-68
2021/07/12 00:42:36;;;;;;;6.70;6.20;;;21.80;1.00;;;;;;5080044;28;20458;-68
2021/07/12 00:45:04;;;;;;;6.33;5.73;;;21.80;1.00;;;;;;5078686;28;20835;-68
2021/07/12 00:47:30;;;;;;;5.80;5.30;;;21.80;1.00;;;;;;5078278;28;20446;-68
2021/07/12 00:49:57;;;;;;;5.50;5.10;;;21.80;1.00;;;;;;5077315;28;20492;-68
2021/07/12 00:52:25;;;;;;;6.00;5.60;;;21.80;1.00;;;;;;5079058;28;20458;-68
2021/07/12 00:54:52;;;;;;;5.43;5.03;;;21.80;1.00;;;;;;5079452;28;20537;-68
2021/07/12 00:57:20;;;;;;;6.33;5.80;;;21.80;1.00;;;;;;5079161;28;20485;-68
2021/07/12 00:59:47;;;;;;;5.23;4.87;;;21.80;1.00;;;;;;5078392;28;20461;-68
2021/07/12 01:02:14;;;;;;;6.47;5.37;;;21.70;1.00;;;;;;5080835;28;20457;-69
2021/07/12 01:04:43;;;;;;;5.20;4.90;;;21.70;1.00;;;;;;5080834;28;20454;-67
2021/07/12 01:07:10;;;;;;;5.73;5.33;;;21.70;1.00;;;;;;5080992;28;20848;-68
2021/07/12 01:09:44;;;;;;;5.40;5.00;;;21.70;1.00;;;;;;5080903;28;20553;-68
2021/07/12 01:12:21;;;;;;;7.97;5.00;;;21.70;1.00;;;;;;5081738;28;20438;-68
2021/07/12 01:14:55;;;;;;;5.80;5.33;;;21.70;1.00;;;;;;5081767;28;20445;-68
2021/07/12 01:17:27;;;;;;;6.93;5.33;;;21.70;1.00;;;;;;5080868;28;20787;-68
2021/07/12 01:20:22;;;;;;;5.90;5.40;;;21.70;1.00;;;;;;5081192;28;20438;-68
2021/07/12 01:23:04;;;;;;;5.97;5.57;;;21.70;1.00;;;;;;5081283;28;20450;-68
2021/07/12 01:26:08;;;;;;;5.87;5.40;;;21.70;1.00;;;;;;5080436;28;20438;-68
2021/07/12 01:29:06;;;;;;;5.67;5.20;;;21.70;1.00;;;;;;5081470;28;20453;-67
2021/07/12 01:32:03;;;;;;;5.53;5.13;;;21.70;1.00;;;;;;5081245;28;20435;-68
2021/07/12 01:34:42;;;;;;;6.07;5.57;;;21.70;1.00;;;;;;5081802;28;20891;-68
2021/07/12 01:37:17;;;;;;;6.60;6.10;;;21.70;1.00;;;;;;5078597;28;20852;-68
2021/07/12 01:39:49;;;;;;;6.23;5.73;;;21.70;1.00;;;;;;5076701;28;20517;-68
2021/07/12 01:42:25;;;;;;;5.70;5.30;;;21.70;1.00;;;;;;5082371;28;20446;-68
2021/07/12 01:44:59;;;;;;;5.90;5.50;;;21.70;1.00;;;;;;5081265;28;20443;-68
2021/07/12 01:47:35;;;;;;;6.73;5.90;;;21.70;1.00;;;;;;5082437;28;20434;-68
2021/07/12 01:50:10;;;;;;;5.40;5.00;;;21.70;1.00;;;;;;5082040;28;20445;-68
2021/07/12 01:52:42;;;;;;;6.47;6.00;;;21.60;1.00;;;;;;5081786;28;20503;-67
2021/07/12 01:55:18;;;;;;;6.03;5.63;;;21.60;1.00;;;;;;5081866;28;20461;-68
2021/07/12 01:57:52;;;;;;;6.30;5.80;;;21.60;1.00;;;;;;5080701;28;20465;-68
2021/07/12 02:00:19;;;;;;;6.30;5.70;;;21.60;1.00;;;;;;5078344;28;20435;-67
2021/07/12 02:02:51;;;;;;;6.03;5.57;;;21.60;1.00;;;;;;5077367;28;20504;-67
2021/07/12 02:05:21;;;;;;;6.87;6.30;;;21.60;1.00;;;;;;5078554;28;20499;-68
2021/07/12 02:07:50;;;;;;;5.53;5.13;;;21.60;1.00;;;;;;5079888;28;20917;-68
2021/07/12 02:10:19;;;;;;;5.90;5.40;;;21.60;1.00;;;;;;5080828;28;20457;-68
2021/07/12 02:12:49;;;;;;;6.57;5.97;;;21.60;1.00;;;;;;5080823;28;20465;-68
2021/07/12 02:15:16;;;;;;;6.23;5.83;;;21.70;1.00;;;;;;5081293;28;20510;-68
2021/07/12 02:17:44;;;;;;;6.00;5.60;;;21.70;1.00;;;;;;5081420;28;20493;-67
2021/07/12 02:20:12;;;;;;;6.10;5.70;;;21.70;1.00;;;;;;5081117;28;20795;-68
2021/07/12 02:22:41;;;;;;;6.77;6.17;;;21.70;1.00;;;;;;5081260;28;20454;-68
2021/07/12 02:25:13;;;;;;;6.67;6.17;;;21.70;1.00;;;;;;5081962;28;20779;-68
2021/07/12 02:27:41;;;;;;;6.30;5.90;;;21.70;1.00;;;;;;5080767;28;20445;-68
2021/07/12 02:30:10;;;;;;;6.13;5.70;;;21.70;1.00;;;;;;5081987;28;20465;-68
2021/07/12 02:32:38;;;;;;;6.57;5.97;;;21.70;1.00;;;;;;5081283;28;20450;-68
2021/07/12 02:35:06;;;;;;;6.50;6.00;;;21.70;1.00;;;;;;5081932;28;20454;-68
2021/07/12 02:37:38;;;;;;;6.40;6.00;;;21.70;1.00;;;;;;5081146;28;20485;-68
2021/07/12 02:40:10;;;;;;;6.60;6.10;;;21.70;1.00;;;;;;5081523;28;20438;-68
2021/07/12 02:42:38;;;;;;;6.43;5.93;;;21.70;1.00;;;;;;5081216;28;20472;-68
2021/07/12 02:45:05;;;;;;;6.50;5.93;;;21.70;1.00;;;;;;5080302;28;20454;-67
2021/07/12 02:47:34;;;;;;;6.57;6.07;;;21.70;1.00;;;;;;5081125;28;20774;-67
2021/07/12 02:50:01;;;;;;;6.10;5.60;;;21.70;1.00;;;;;;5079401;28;20475;-69
2021/07/12 02:52:33;;;;;;;6.70;6.20;;;21.70;1.00;;;;;;5082015;28;20458;-67
2021/07/12 02:55:01;;;;;;;6.90;5.67;;;21.70;1.00;;;;;;5083147;28;20536;-68
2021/07/12 02:57:29;;;;;;;6.47;5.97;;;21.70;1.00;;;;;;5083084;28;20485;-68
2021/07/12 02:59:56;;;;;;;6.63;6.03;;;21.70;1.00;;;;;;5083826;28;20548;-67
2021/07/12 03:02:22;;;;;;;7.00;6.30;;;21.70;1.00;;;;;;5083347;28;20527;-67
2021/07/12 03:04:49;;;;;;;6.93;6.43;;;21.70;1.00;;;;;;5084663;28;20453;-68
2021/07/12 03:07:27;;;;;;;5.90;5.40;;;21.70;1.00;;;;;;5082981;28;20449;-68
2021/07/12 03:09:59;;;;;;;6.30;5.80;;;21.70;1.00;;;;;;5082471;28;20449;-67
2021/07/12 03:12:32;;;;;;;6.70;6.20;;;21.70;1.00;;;;;;5080272;28;20438;-67
2021/07/12 03:15:04;;;;;;;7.23;6.30;;;21.70;1.00;;;;;;5079911;28;20799;-67
2021/07/12 03:17:35;;;;;;;6.40;5.90;;;21.70;1.00;;;;;;5080704;28;20945;-69
2021/07/12 03:20:04;;;;;;;6.93;6.33;;;21.70;1.00;;;;;;5081353;28;20772;-67
2021/07/12 03:22:33;;;;;;;7.50;6.90;;;21.70;1.00;;;;;;5083628;28;20503;-68
2021/07/12 03:25:00;;;;;;;7.20;6.37;;;21.70;1.00;;;;;;5080383;28;20484;-67
2021/07/12 03:27:31;;;;;;;7.93;7.23;;;21.70;1.00;;;;;;5078393;28;20462;-67
2021/07/12 03:30:01;;;;;;;8.27;7.67;;;21.60;1.00;;;;;;5078127;28;20447;-67
2021/07/12 03:32:31;;;;;;;7.07;6.47;;;21.70;1.00;;;;;;5077909;28;20948;-67
2021/07/12 03:34:58;;;;;;;8.57;7.77;;;21.70;1.00;;;;;;5077808;28;20461;-68
2021/07/12 03:37:27;;;;;;;7.67;6.87;;;21.70;1.00;;;;;;5077490;28;20950;-68
2021/07/12 03:39:54;;;;;;;8.43;7.70;;;21.70;1.00;;;;;;5078016;28;20454;-68
2021/07/12 03:42:22;;;;;;;8.97;8.27;;;21.70;1.00;;;;;;5077998;28;20865;-68
2021/07/12 03:44:49;;;;;;;8.80;8.10;;;21.70;1.00;;;;;;5077505;28;20847;-67
2021/07/12 03:47:31;;;;;;;8.37;7.67;;;21.70;1.00;;;;;;5077546;28;20454;-67
2021/07/12 03:50:09;;;;;;;7.67;7.00;;;21.80;1.00;;;;;;5078623;28;20465;-67
2021/07/12 03:52:41;;;;;;;8.23;7.53;;;21.70;1.00;;;;;;5078077;28;20521;-67
2021/07/12 03:55:09;;;;;;;8.03;7.23;;;21.70;1.00;;;;;;5078236;28;20447;-68
2021/07/12 03:57:36;;;;;;;8.10;7.40;;;21.70;1.00;;;;;;5078617;28;20482;-68
2021/07/12 04:00:03;;;;;;;8.10;7.50;;;21.70;1.00;;;;;;5077954;28;20469;-67
2021/07/12 04:02:31;;;;;;;8.77;8.10;;;21.70;1.00;;;;;;5079432;28;20465;-67
2021/07/12 04:04:58;;;;;;;9.40;7.80;;;21.70;1.00;;;;;;5077197;28;20458;-68
2021/07/12 04:07:24;;;;;;;10.60;8.07;;;21.70;1.00;;;;;;5076889;28;20465;-68
2021/07/12 04:09:51;;;;;;;8.73;7.93;;;21.70;1.00;;;;;;5076612;28;20468;-68
2021/07/12 04:12:24;;;;;;;8.00;7.40;;;21.70;1.00;;;;;;5076897;28;20458;-68
2021/07/12 04:14:51;;;;;;;9.10;8.30;;;21.80;1.00;;;;;;5077414;28;20867;-68
2021/07/12 04:17:18;;;;;;;7.67;7.10;;;21.80;1.00;;;;;;5079553;28;20481;-68
2021/07/12 04:19:46;;;;;;;9.70;7.60;;;21.80;1.00;;;;;;5079398;28;20462;-68
2021/07/12 04:22:13;;;;;;;8.40;7.70;;;21.80;1.00;;;;;;5078873;28;20458;-67
2021/07/12 04:24:40;;;;;;;8.70;7.80;;;21.80;1.00;;;;;;5077129;28;20488;-67
2021/07/12 04:27:07;;;;;;;8.63;7.73;;;21.80;1.00;;;;;;5077757;28;20832;-67
2021/07/12 04:29:34;;;;;;;9.03;8.20;;;21.70;1.00;;;;;;5078470;28;20511;-67
2021/07/12 04:32:01;;;;;;;8.43;7.73;;;21.80;1.00;;;;;;5077991;28;20458;-66
2021/07/12 04:34:30;;;;;;;9.73;8.93;;;21.70;1.00;;;;;;5078875;28;20450;-67
2021/07/12 04:36:58;;;;;;;8.90;8.00;;;21.70;2.40;;;;;;5078071;28;20478;-68
2021/07/12 04:39:28;;;;;;;9.40;8.50;;;21.80;1.00;;;;;;5077369;28;20454;-67
2021/07/12 04:41:55;;;;;;;8.67;7.93;;;21.80;1.00;;;;;;5076766;28;20466;-67
2021/07/12 04:44:21;;;;;;;8.40;7.60;;;21.80;1.00;;;;;;5077447;28;20466;-67
2021/07/12 04:46:48;;;;;;;7.53;6.87;;;21.90;1.00;;;;;;5076142;28;20497;-68
2021/07/12 04:49:15;;;;;;;7.37;6.77;;;21.90;1.00;;;;;;5076088;28;20932;-67
2021/07/12 04:51:42;;;;;;;8.50;7.67;;;21.90;1.00;;;;;;5076786;28;20458;-67
2021/07/12 04:54:10;;;;;;;7.43;6.87;;;22.00;1.00;;;;;;5075988;28;20473;-67
2021/07/12 04:56:37;;;;;;;7.93;7.33;;;22.00;1.00;;;;;;5077182;28;20937;-67
2021/07/12 04:59:07;;;;;;;7.60;7.00;;;22.00;1.00;;;;;;5076624;28;20466;-68
2021/07/12 05:01:34;;;;;;;8.30;7.63;;;22.00;1.00;;;;;;5076250;28;20541;-67
2021/07/12 05:04:01;;;;;;;7.93;7.33;;;22.10;1.00;;;;;;5076041;28;20549;-67
2021/07/12 05:06:28;;;;;;;6.73;6.30;;;22.10;1.00;;;;;;5076366;28;20486;-67
2021/07/12 05:08:55;;;;;;;7.60;7.10;;;22.10;1.00;;;;;;5075687;28;20465;-67
2021/07/12 05:11:24;;;;;;;7.90;7.30;;;22.10;1.00;;;;;;5076391;28;20790;-67
2021/07/12 05:13:51;;;;;;;7.50;6.90;;;22.10;1.00;;;;;;5076750;28;20458;-67
2021/07/12 05:16:18;;;;;;;8.10;7.50;;;22.10;1.00;;;;;;5076994;28;20455;-67
2021/07/12 05:18:45;;;;;;;7.13;6.63;;;22.10;1.00;;;;;;5076880;28;20804;-67
2021/07/12 05:21:11;;;;;;;7.97;7.37;;;22.00;1.00;;;;;;5075865;28;20960;-67
2021/07/12 05:23:38;;;;;;;8.10;7.50;;;22.10;1.00;;;;;;5077090;28;20470;-67
2021/07/12 05:26:06;;;;;;;9.70;8.77;;;22.10;1.00;;;;;;5077511;28;20473;-67
2021/07/12 05:28:34;;;;;;;7.87;7.17;;;22.10;1.00;;;;;;5077363;28;20450;-67
2021/07/12 05:31:01;;;;;;;7.60;7.10;;;22.10;1.00;;;;;;5076944;28;20546;-67
2021/07/12 05:33:27;;;;;;;8.17;7.47;;;22.20;1.00;;;;;;5077469;28;20458;-68
2021/07/12 05:35:54;;;;;;;7.87;7.30;;;22.20;1.00;;;;;;5076016;28;20515;-67
2021/07/12 05:38:21;;;;;;;7.93;7.23;;;22.20;1.00;;;;;;5076092;28;20482;-67
2021/07/12 05:40:47;;;;;;;8.00;7.40;;;22.30;1.00;;;;;;5077022;28;20471;-68
2021/07/12 05:43:14;;;;;;;6.97;6.47;;;22.30;1.00;;;;;;5076390;28;20454;-67
2021/07/12 05:45:43;;;;;;;7.73;7.00;;;22.40;1.00;;;;;;5074869;28;20485;-67
2021/07/12 05:48:10;;;;;;;12.63;7.80;;;22.40;1.00;;;;;;5076127;28;20453;-69
2021/07/12 05:50:37;;;;;;;8.07;7.47;;;22.40;1.00;;;;;;5076224;28;20485;-67
2021/07/12 05:53:04;;;;;;;10.90;7.30;;;22.40;1.00;;;;;;5075629;28;20796;-67
2021/07/12 05:55:31;;;;;;;7.50;7.00;;;22.40;1.00;;;;;;5075929;28;20518;-67
2021/07/12 05:57:58;;;;;;;8.10;7.50;;;22.40;1.00;;;;;;5074637;28;20552;-68
2021/07/12 06:00:25;;;;;;;8.20;7.57;;;22.40;1.00;;;;;;5075346;28;20454;-72
2021/07/12 06:02:53;;;;;;;8.90;8.30;;;22.50;1.00;;;;;;5075169;28;20469;-67
2021/07/12 06:05:20;;;;;;;8.60;7.97;;;22.50;1.00;;;;;;5074753;28;20458;-67
2021/07/12 06:07:47;;;;;;;8.77;8.10;;;22.50;1.00;;;;;;5074693;28;20453;-67
2021/07/12 06:10:14;;;;;;;8.00;7.30;;;22.50;1.00;;;;;;5075105;28;20457;-69
2021/07/12 06:12:41;;;;;;;8.23;7.53;;;22.60;1.00;;;;;;5074657;28;20462;-67
2021/07/12 06:15:09;;;;;;;7.57;6.93;;;22.60;1.00;;;;;;5075198;28;20935;-68
2021/07/12 06:17:36;;;;;;;8.10;7.33;;;22.60;1.00;;;;;;5074783;28;20814;-67
2021/07/12 06:20:07;;;;;;;9.30;8.50;;;22.70;1.00;;;;;;5078695;28;20938;-68
2021/07/12 06:22:34;;;;;;;7.90;7.20;;;22.70;1.00;;;;;;5078796;28;20458;-67
2021/07/12 06:25:01;;;;;;;7.67;7.07;;;22.80;1.00;;;;;;5079120;28;20465;-67
2021/07/12 06:27:27;;;;;;;8.30;7.50;;;22.80;1.00;;;;;;5079210;28;20449;-66
2021/07/12 06:29:54;;;;;;;9.03;7.80;;;22.90;1.00;;;;;;5079019;28;20493;-67
2021/07/12 06:32:21;;;;;;;8.47;7.73;;;22.90;1.00;;;;;;5078614;28;20930;-66
2021/07/12 06:34:48;;;;;;;8.20;7.37;;;23.00;1.00;;;;;;5078825;28;20790;-68
2021/07/12 06:37:16;;;;;;;9.77;7.60;;;23.00;1.00;;;;;;5078643;28;20481;-68
2021/07/12 06:39:42;;;;;;;8.20;7.40;;;23.00;1.00;;;;;;5078604;28;20458;-67
2021/07/12 06:42:09;;;;;;;9.50;8.80;;;23.00;1.00;;;;;;5078754;28;20472;-67
2021/07/12 06:44:36;;;;;;;9.27;8.47;;;23.00;1.00;;;;;;5078030;28;20445;-67
2021/07/12 06:47:03;;;;;;;19.57;11.70;;;23.00;1.00;;;;;;5078018;28;20481;-69
2021/07/12 06:49:30;;;;;;;11.00;9.13;;;23.10;1.00;;;;;;5078393;28;20469;-68
2021/07/12 06:51:57;;;;;;;16.10;9.47;;;23.10;1.00;;;;;;5078571;28;20469;-67
2021/07/12 06:54:25;;;;;;;9.37;8.57;;;23.20;1.00;;;;;;5077878;28;20454;-66
2021/07/12 06:56:52;;;;;;;9.03;8.23;;;23.40;1.00;;;;;;5077865;28;20465;-68
2021/07/12 06:59:18;;;;;;;9.50;8.70;;;23.50;1.00;;;;;;5078306;28;20473;-68
2021/07/12 07:01:45;;;;;;;8.43;7.73;;;23.70;1.00;;;;;;5079129;28;20547;-68
2021/07/12 07:04:12;;;;;;;8.27;7.47;;;23.90;1.00;;;;;;5078286;28;20529;-68
2021/07/12 07:06:39;;;;;;;8.30;7.70;;;24.10;1.00;;;;;;5078113;28;20457;-68
2021/07/12 07:09:06;;;;;;;7.30;6.80;;;24.20;1.00;;;;;;5078449;28;20458;-67
2021/07/12 07:11:34;;;;;;;7.43;6.93;;;24.30;1.00;;;;;;5078415;28;20461;-68
2021/07/12 07:14:02;;;;;;;7.30;6.80;;;24.40;1.00;;;;;;5079052;28;20485;-68
2021/07/12 07:16:28;;;;;;;8.97;7.50;;;24.40;1.00;;;;;;5079394;28;20457;-66
2021/07/12 07:18:55;;;;;;;7.10;6.57;;;24.50;1.00;;;;;;5080155;28;20489;-68
2021/07/12 07:21:22;;;;;;;7.43;6.83;;;24.50;1.00;;;;;;5080879;28;20458;-68
2021/07/12 07:23:49;;;;;;;8.03;7.33;;;24.60;1.00;;;;;;5080385;28;20454;-68
2021/07/12 07:26:15;;;;;;;7.37;6.80;;;24.70;99.90;;;;;;5081401;28;20461;-68
2021/07/12 07:28:43;;;;;;;7.50;6.90;;;24.70;99.90;;;;;;5080880;28;20454;-68
2021/07/12 07:31:10;;;;;;;8.30;7.20;;;24.80;99.90;;;;;;5079621;28;20454;-68
2021/07/12 07:33:37;;;;;;;7.80;7.10;;;24.80;99.90;;;;;;5078928;28;20454;-66
2021/07/12 07:36:04;;;;;;;7.10;6.50;;;24.90;99.90;;;;;;5078340;28;20458;-67
2021/07/12 07:38:31;;;;;;;7.10;6.50;;;25.00;99.90;;;;;;5078862;28;20851;-67
2021/07/12 07:40:58;;;;;;;7.20;6.70;;;25.10;99.90;;;;;;5078316;28;20454;-67
2021/07/12 07:43:25;;;;;;;8.00;7.30;;;25.20;99.90;;;;;;5078532;28;20458;-67
2021/07/12 07:45:53;;;;;;;7.30;6.60;;;25.40;17.00;;;;;;5077252;28;20486;-68
2021/07/12 07:48:19;;;;;;;7.07;6.57;;;25.50;1.00;;;;;;5077270;28;20511;-67
2021/07/12 07:50:46;;;;;;;7.17;6.67;;;25.70;99.90;;;;;;5076906;28;20489;-67
2021/07/12 07:53:13;;;;;;;6.87;6.30;;;25.70;99.90;;;;;;5076865;28;20540;-66
2021/07/12 07:55:40;;;;;;;6.73;6.13;;;25.80;53.50;;;;;;5076627;28;20454;-68
2021/07/12 07:58:07;;;;;;;6.87;6.37;;;25.90;99.90;;;;;;5076858;28;20482;-67
2021/07/12 08:00:34;;;;;;;6.33;5.73;;;25.90;1.00;;;;;;5077110;28;20489;-68
2021/07/12 08:03:02;;;;;;;6.20;5.80;;;25.90;99.90;;;;;;5076869;28;20501;-68
2021/07/12 08:05:29;;;;;;;5.90;5.50;;;25.90;99.90;;;;;;5076489;28;20930;-67
2021/07/12 08:07:56;;;;;;;6.00;5.60;;;25.90;99.90;;;;;;5077096;28;20461;-68
2021/07/12 08:10:23;;;;;;;6.20;5.80;;;26.00;99.90;;;;;;5076729;28;20454;-67
2021/07/12 08:12:50;;;;;;;6.03;5.53;;;26.10;1.00;;;;;;5077273;28;20465;-68
2021/07/12 08:15:18;;;;;;;6.50;6.00;;;26.20;1.00;;;;;;5077541;28;20458;-67
2021/07/12 08:17:47;;;;;;;8.97;6.60;;;26.20;99.90;;;;;;5076521;28;20478;-68
2021/07/12 08:20:16;;;;;;;6.27;5.77;;;26.30;99.90;;;;;;5076692;28;20458;-67
2021/07/12 08:22:45;;;;;;;7.27;6.77;;;26.30;7.20;;;;;;5077021;28;20465;-67
2021/07/12 08:25:13;;;;;;;7.50;6.87;;;26.30;1.00;;;;;;5076548;28;20933;-67
2021/07/12 08:27:40;;;;;;;8.03;7.43;;;26.30;1.00;;;;;;5077375;28;20458;-67
2021/07/12 08:30:09;;;;;;;7.83;7.23;;;26.30;1.00;;;;;;5076752;28;20470;-67
2021/07/12 08:32:35;;;;;;;10.07;9.20;;;26.20;1.00;;;;;;5076898;28;20821;-69
2021/07/12 08:35:03;;;;;;;7.83;7.30;;;26.20;1.00;;;;;;5076622;28;20484;-67
2021/07/12 08:37:31;;;;;;;7.87;7.37;;;26.20;1.00;;;;;;5077344;28;20756;-67
2021/07/12 08:39:58;;;;;;;9.07;8.37;;;26.30;1.00;;;;;;5077046;28;20450;-67
2021/07/12 08:42:26;;;;;;;9.57;8.87;;;26.30;1.00;;;;;;5077110;28;20784;-68
2021/07/12 08:44:53;;;;;;;10.10;9.30;;;26.30;1.00;;;;;;5076443;28;20521;-67
2021/07/12 08:47:20;;;;;;;10.30;9.37;;;26.20;1.00;;;;;;5076462;28;20443;-67
2021/07/12 08:49:46;;;;;;;20.73;9.60;;;26.30;1.00;;;;;;5076168;28;20454;-67
2021/07/12 08:52:13;;;;;;;9.77;9.07;;;26.30;1.00;;;;;;5075825;28;20465;-67
2021/07/12 08:54:41;;;;;;;9.40;8.70;;;26.30;1.00;;;;;;5076011;28;20756;-68
2021/07/12 08:57:08;;;;;;;9.53;8.83;;;26.40;1.00;;;;;;5075682;28;20458;-67
2021/07/12 08:59:39;;;;;;;9.53;8.70;;;26.50;1.00;;;;;;5075692;28;20493;-67
2021/07/12 09:02:08;;;;;;;9.67;8.90;;;26.60;99.90;;;;;;5075840;28;20470;-68
2021/07/12 09:04:40;;;;;;;9.93;9.23;;;26.70;99.90;;;;;;5075569;28;20482;-68
2021/07/12 09:07:09;;;;;;;9.43;8.83;;;26.80;99.90;;;;;;5076091;28;20510;-68
2021/07/12 09:09:36;;;;;;;8.67;8.07;;;26.90;99.90;;;;;;5075428;28;20450;-68
2021/07/12 09:12:12;;;;;;;10.00;9.30;;;27.00;99.90;;;;;;5075953;28;20473;-67
2021/07/12 09:14:40;;;;;;;9.70;9.00;;;27.10;99.90;;;;;;5076623;28;20445;-66
2021/07/12 09:17:08;;;;;;;9.40;8.70;;;27.20;31.40;;;;;;5078354;28;20469;-68
2021/07/12 09:19:36;;;;;;;8.70;8.10;;;27.20;1.00;;;;;;5077119;28;20972;-68
2021/07/12 09:22:05;;;;;;;8.80;8.20;;;27.40;1.00;;;;;;5075697;28;20520;-67
2021/07/12 09:24:37;;;;;;;9.03;8.33;;;27.40;1.00;;;;;;5075364;28;20462;-67
2021/07/12 09:27:08;;;;;;;14.50;7.90;;;27.40;1.00;;;;;;5075747;28;20438;-67
2021/07/12 09:29:39;;;;;;;9.50;8.70;;;27.50;1.00;;;;;;5075646;28;20898;-67
2021/07/12 09:32:08;;;;;;;8.10;7.50;;;27.70;1.00;;;;;;5075287;28;20458;-67
2021/07/12 09:34:35;;;;;;;7.83;7.33;;;27.80;1.00;;;;;;5075483;28;20469;-67
2021/07/12 09:37:03;;;;;;;6.87;6.47;;;28.00;1.00;;;;;;5075109;28;20930;-68
2021/07/12 09:39:39;;;;;;;8.20;7.50;;;28.20;1.00;;;;;;5075877;28;20571;-67
2021/07/12 09:42:08;;;;;;;7.33;6.73;;;28.40;1.00;;;;;;5075867;28;20449;-67
2021/07/12 09:44:39;;;;;;;7.97;7.30;;;28.50;1.00;;;;;;5076303;28;20458;-67
2021/07/12 09:47:09;;;;;;;7.97;7.47;;;28.60;1.00;;;;;;5076004;28;20482;-67
2021/07/12 09:49:36;;;;;;;7.27;6.87;;;28.70;1.00;;;;;;5076711;28;20450;-68
2021/07/12 09:52:07;;;;;;;7.30;6.80;;;28.70;1.00;;;;;;5075733;28;20473;-68
2021/07/12 09:54:36;;;;;;;7.20;6.77;;;28.70;99.90;;;;;;5075730;28;20500;-67
2021/07/12 09:57:06;;;;;;;7.73;7.13;;;28.60;99.90;;;;;;5075540;28;20469;-68
2021/07/12 09:59:34;;;;;;;7.87;7.30;;;28.60;99.90;;;;;;5075527;28;20482;-68
2021/07/12 10:02:03;;;;;;;8.03;7.43;;;28.60;99.90;;;;;;5074757;28;20920;-69
2021/07/12 10:04:30;;;;;;;8.17;7.57;;;28.70;99.90;;;;;;5075478;28;20497;-68
2021/07/12 10:06:57;;;;;;;7.47;7.07;;;28.60;99.90;;;;;;5074875;28;20465;-68
2021/07/12 10:09:24;;;;;;;13.00;7.93;;;28.50;99.90;;;;;;5075541;28;20462;-67
2021/07/12 10:11:52;;;;;;;8.03;7.43;;;28.40;99.90;;;;;;5075595;28;20466;-68
2021/07/12 10:14:20;;;;;;;7.33;6.80;;;28.30;99.90;;;;;;5075433;28;20481;-67
2021/07/12 10:16:47;;;;;;;7.10;6.40;;;28.30;99.90;;;;;;5075033;28;20454;-67
2021/07/12 10:19:15;;;;;;;7.27;6.77;;;28.30;99.90;;;;;;5074787;28;20485;-67
2021/07/12 10:21:47;;;;;;;8.40;7.80;;;28.30;99.90;;;;;;5074915;28;20523;-68
2021/07/12 10:24:16;;;;;;;7.60;7.10;;;28.30;99.90;;;;;;5075131;28;20442;-67
2021/07/12 10:26:55;;;;;;;7.60;7.00;;;28.40;1.00;;;;;;5074746;28;20484;-67
2021/07/12 10:29:30;;;;;;;7.03;6.53;;;28.50;99.90;;;;;;5081357;28;20453;-67
2021/07/12 10:32:13;;;;;;;6.80;6.20;;;28.60;99.90;;;;;;5074828;28;20477;-67
2021/07/12 10:34:43;;;;;;;6.63;6.23;;;28.70;99.90;;;;;;5074666;28;20442;-67
2021/07/12 10:37:22;;;;;;;7.83;7.20;;;28.80;99.90;;;;;;5074639;28;20455;-67
2021/07/12 10:40:08;;;;;;;6.83;6.43;;;28.90;99.90;;;;;;5074585;28;20477;-67
2021/07/12 10:42:55;;;;;;;7.03;6.53;;;28.90;99.90;;;;;;5077039;28;20840;-67
2021/07/12 10:45:38;;;;;;;7.23;6.73;;;28.90;99.90;;;;;;5074285;28;20504;-67
2021/07/12 10:48:07;;;;;;;7.80;7.27;;;28.90;99.90;;;;;;5061852;28;20508;-67
2021/07/12 10:50:40;;;;;;;7.63;7.13;;;28.90;99.90;;;;;;5074927;28;20450;-66
2021/07/12 10:53:34;;;;;;;6.97;6.50;;;29.00;99.90;;;;;;5074771;28;20464;-68
2021/07/12 10:56:08;;;;;;;7.50;7.00;;;29.00;99.90;;;;;;5074910;28;20434;-67
2021/07/12 10:58:43;;;;;;;8.40;7.63;;;29.00;99.90;;;;;;5075362;28;20569;-67
2021/07/12 11:01:11;;;;;;;7.70;7.10;;;29.10;99.90;;;;;;5074715;28;20458;-67
2021/07/12 11:03:39;;;;;;;8.53;7.83;;;29.10;99.90;;;;;;5075375;28;20459;-67
2021/07/12 11:06:09;;;;;;;7.60;7.10;;;29.20;99.90;;;;;;5076709;28;20454;-67
2021/07/12 11:08:43;;;;;;;8.00;7.40;;;29.40;99.90;;;;;;5078125;28;20449;-67
2021/07/12 11:11:11;;;;;;;8.37;7.83;;;29.50;99.90;;;;;;5077971;28;20454;-67
2021/07/12 11:13:50;;;;;;;8.23;7.53;;;29.60;99.90;;;;;;5078096;28;20861;-67
2021/07/12 11:16:19;;;;;;;7.13;6.70;;;29.50;99.90;;;;;;5077363;28;20937;-67
2021/07/12 11:18:46;;;;;;;7.67;7.07;;;29.70;99.90;;;;;;5077787;28;20474;-67
2021/07/12 11:21:15;;;;;;;7.00;6.60;;;29.70;99.90;;;;;;5078293;28;20454;-67
2021/07/12 11:23:52;;;;;;;8.00;7.40;;;29.90;99.90;;;;;;5078088;28;20469;-67
2021/07/12 11:26:43;;;;;;;6.77;6.37;;;30.20;99.90;;;;;;5077511;28;20490;-67
2021/07/12 11:29:36;;;;;;;7.10;6.60;;;30.50;99.90;;;;;;5077867;28;20492;-67
2021/07/12 11:32:14;;;;;;;7.70;7.20;;;30.70;99.90;;;;;;5077614;28;20887;-68
2021/07/12 11:34:53;;;;;;;7.70;7.17;;;30.80;99.90;;;;;;5077522;28;20483;-67
2021/07/12 11:37:23;;;;;;;7.87;7.27;;;30.60;99.90;;;;;;5077793;28;20842;-67
2021/07/12 11:39:53;;;;;;;7.57;6.87;;;30.70;99.90;;;;;;5078244;28;20493;-67
2021/07/12 11:42:23;;;;;;;7.80;7.20;;;31.00;99.90;;;;;;5078771;28;20894;-67
2021/07/12 11:44:53;;;;;;;7.60;7.10;;;31.10;99.90;;;;;;5077924;28;20454;-67
2021/07/12 11:47:23;;;;;;;7.73;7.23;;;31.10;99.90;;;;;;5078051;28;20439;-67
2021/07/12 11:49:52;;;;;;;7.83;7.33;;;30.90;99.90;;;;;;5077793;28;20813;-67
2021/07/12 11:52:18;;;;;;;8.77;8.07;;;30.80;99.90;;;;;;5077520;28;20466;-67
2021/07/12 11:54:47;;;;;;;8.10;7.50;;;30.60;99.90;;;;;;5077133;28;20485;-67
2021/07/12 11:57:15;;;;;;;8.20;7.70;;;30.50;99.90;;;;;;5077222;28;20470;-67
2021/07/12 11:59:43;;;;;;;7.73;7.13;;;30.60;99.90;;;;;;5076622;28;20564;-67
2021/07/12 12:02:12;;;;;;;8.67;7.97;;;30.80;99.90;;;;;;5076997;28;20470;-67
2021/07/12 12:04:47;;;;;;;7.43;6.93;;;30.90;99.90;;;;;;5077198;28;20454;-67
2021/07/12 12:07:41;;;;;;;6.90;6.50;;;31.50;99.90;;;;;;5078959;28;20442;-68
2021/07/12 12:10:12;;;;;;;6.90;6.40;;;32.30;99.90;;;;;;5077667;28;20895;-67
2021/07/12 12:12:42;;;;;;;6.70;6.10;;;33.30;99.90;;;;;;5077543;28;20454;-67
2021/07/12 12:15:13;;;;;;;7.07;6.53;;;34.30;66.00;;;;;;5077687;28;20469;-67
2021/07/12 12:17:44;;;;;;;6.50;6.00;;;35.10;14.80;;;;;;5076620;28;20481;-67
2021/07/12 12:20:17;;;;;;;5.87;5.50;;;35.80;1.00;;;;;;5076913;28;20474;-67
2021/07/12 12:23:12;;;;;;;6.87;6.17;;;35.80;1.00;;;;;;5076795;28;20442;-67
2021/07/12 12:25:53;;;;;;;6.50;6.10;;;35.40;1.00;;;;;;5077486;28;20445;-66
2021/07/12 12:28:31;;;;;;;6.37;5.97;;;34.90;1.00;;;;;;5078049;28;20913;-72
2021/07/12 12:31:02;;;;;;;7.13;6.73;;;34.70;1.00;;;;;;5077469;28;20779;-66
2021/07/12 12:33:30;;;;;;;5.97;5.57;;;34.90;1.00;;;;;;5077763;28;20438;-66
2021/07/12 12:36:02;;;;;;;6.70;6.20;;;35.30;1.00;;;;;;5076250;28;20465;-66
2021/07/12 12:38:29;;;;;;;5.90;5.53;;;35.80;1.00;;;;;;5076361;28;20454;-67
2021/07/12 12:40:59;;;;;;;7.00;6.47;;;36.10;1.00;;;;;;5076409;28;20535;-67
2021/07/12 12:43:26;;;;;;;5.70;5.20;;;35.80;1.00;;;;;;5076541;28;20466;-66
2021/07/12 12:45:55;;;;;;;6.50;6.10;;;35.70;1.00;;;;;;5076747;28;20481;-66
2021/07/12 12:48:40;;;;;;;5.17;4.87;;;35.90;1.00;;;;;;5076659;28;20481;-67
2021/07/12 12:51:26;;;;;;;5.47;5.07;;;36.60;1.00;;;;;;5076064;28;20516;-66
2021/07/12 12:54:07;;;;;;;6.03;5.53;;;37.10;1.00;;;;;;5076060;28;20450;-66
2021/07/12 12:56:38;;;;;;;6.07;5.67;;;37.60;1.00;;;;;;5075973;28;20481;-67
2021/07/12 12:59:06;;;;;;;5.70;5.40;;;37.90;1.00;;;;;;5076405;28;20813;-66
2021/07/12 13:01:35;;;;;;;5.60;5.20;;;37.90;1.00;;;;;;5076854;28;20466;-66
2021/07/12 13:04:11;;;;;;;5.40;5.10;;;38.20;1.00;;;;;;5075853;28;20458;-66
2021/07/12 13:06:44;;;;;;;5.50;5.20;;;38.40;1.00;;;;;;5076551;28;20438;-66